佐賀空港の過去48時間の天気

佐賀空港 (Saga)

現在時刻: 1/23 13:18 JST (1/23 04:18 UTC) 以下の時間は現地時間です。

過去48時間のMETAR気象情報
時間 風向 風速(m/s) 視程 気温(℃) 湿度(%) 気圧(hPa) 天気現象
23 13:00 北西 6 10km以上 7 53 1020
23 12:00 北西 7 10km以上 6 65 1020 周辺でしゅう雨
23 11:00 北西 4 10km以上 5 81 1020 弱いしゅう雨
23 10:00 西北西 5 10km以上 6 70 1020 周辺でしゅう雨
23 09:00 西 4 10km以上 6 70 1019
23 08:00 西 4 10km以上 5 70 1018
23 07:00 西北西 4 10km以上 5 75 1017
23 06:00 西北西 5 10km以上 5 81 1016
23 04:00 1 6,000m 4 93 1015
23 03:00 3 10km以上 7 87 1014
23 02:00 南東 3 10km以上 7 87 1015
23 01:00 南東 5 10km以上 7 87 1014
23 00:00 南東 4 10km以上 7 87 1014
22 23:00 北東 2 8,000m 2 100 1015
22 21:00 1 10km以上 3 100 1015
22 20:00 南東 2 10km以上 4 93 1015
22 19:00 南南東 1 10km以上 5 93 1015
22 18:00 2 10km以上 5 87 1014
22 17:00 不定 1 10km以上 7 76 1014
22 16:00 北東 2 10km以上 8 76 1013
22 15:00 北北東 3 10km以上 7 81 1013
22 14:00 北西 2 10km以上 6 93 1013
22 13:00 北西 3 10km以上 6 87 1012
22 12:00 5 10km以上 5 87 1013
22 11:00 北東 5 10km以上 5 93 1013 弱いしゅう雨
22 10:00 北東 4 9,000m 5 93 1015 弱いしゅう雨
22 09:00 北北西 1 6,000m 5 93 1015 弱いしゅう雨
22 08:00 2 7,000m 5 93 1015 弱いしゅう雨
22 07:44 3 7,000m 5 93 1015 弱いしゅう雨
22 07:22 3 6,000m 5 93 1015 しゅう雨
22 07:00 北北西 2 7,000m 5 93 1015 弱いしゅう雨
22 06:00 北西 2 8,000m 5 93 1014 弱いしゅう雨
22 04:00 3 10km以上 6 70 1014
22 03:00 北北東 3 10km以上 6 70 1015
22 02:00 東北東 3 10km以上 6 65 1016
22 01:00 北北東 3 10km以上 6 70 1016
21 21:00 北北東 3 10km以上 5 75 1019
21 20:00 北北東 2 10km以上 7 61 1019
21 19:00 北北東 3 10km以上 8 57 1019
21 18:00 4 10km以上 9 57 1019
21 17:00 北東 5 10km以上 11 47 1019
21 16:00 北東 5 10km以上 12 47 1018
21 15:00 北北東 5 10km以上 12 47 1019
21 14:00 不定 2 10km以上 13 47 1019
RJFS 230400Z 31012KT 9999 FEW020 SCT030 07/M02 Q1020
RJFS 230300Z 32013KT 280V350 9999 VCSH FEW020 SCT030 BKN040 06/00 Q1020
RJFS 230200Z 31007KT 9999 -SHRA FEW020 SCT025 BKN030 05/02 Q1020
RJFS 230100Z 29010KT 9999 VCSH FEW020 SCT035 BKN045 06/01 Q1020
RJFS 230000Z 28008KT 9999 FEW035 06/01 Q1019
RJFS 222300Z 28008KT 9999 FEW035 05/00 Q1018
RJFS 222200Z 29008KT 9999 FEW030 05/01 Q1017
RJFS 222100Z 29009KT 9999 FEW040 05/02 Q1016
RJFS 221900Z 01002KT 6000 FEW035 BKN050 04/03 Q1015
RJFS 221800Z 18006KT 9999 FEW035 BKN060 07/05 Q1014
RJFS 221700Z 13005KT 070V150 9999 FEW010 BKN035 07/05 Q1015
RJFS 221600Z 14010KT 9999 FEW010 BKN050 07/05 Q1014
RJFS 221500Z 14008KT 9999 FEW010 BKN050 07/05 Q1014
RJFS 221400Z 04003KT 340V080 8000 FEW010 SCT060 02/02 Q1015
RJFS 221200Z 17002KT 9999 FEW040 03/03 Q1015
RJFS 221100Z 13003KT 9999 FEW040 04/03 Q1015
RJFS 221000Z 15002KT 9999 FEW050 05/04 Q1015
RJFS 220900Z 08003KT 9999 FEW030 05/03 Q1014
RJFS 220800Z VRB01KT 9999 FEW030 07/03 Q1014
RJFS 220700Z 05004KT 020V100 9999 FEW015 SCT030 08/04 Q1013
RJFS 220600Z 03005KT 9999 FEW010 SCT015 BKN050 07/04 Q1013
RJFS 220500Z 32003KT 280V360 9999 FEW010 BKN030 BKN050 06/05 Q1013
RJFS 220400Z 32006KT 9999 FEW005 BKN035 BKN060 06/04 Q1012
RJFS 220300Z 01010KT 9999 FEW010 BKN030 BKN060 05/03 Q1013
RJFS 220200Z 04010KT 9999 -SHRA FEW010 SCT035 BKN060 05/04 Q1013
RJFS 220100Z 05008KT 9000 -SHRA FEW010 SCT020 BKN045 05/04 Q1015
RJFS 220000Z 34002KT 6000 -SHRA FEW007 SCT015 BKN035 05/04 Q1015
RJFS 212300Z 36004KT 7000 -SHRA FEW020 SCT030 BKN050 05/04 Q1015
RJFS 212244Z 35005KT 7000 -SHRA FEW020 SCT030 BKN050 05/04 Q1015 RMK 1CU020 3CU030 7SC050 A2999
RJFS 212222Z 35005KT 310V010 6000 SHRA FEW015 SCT020 BKN025 05/04 Q1015 RMK 1CU015 3CU020 5CU025 A3000
RJFS 212200Z 33004KT 300V010 7000 -SHRA FEW025 BKN035 BKN050 05/04 Q1015
RJFS 212100Z 31004KT 8000 -SHRA FEW025 BKN035 05/04 Q1014
RJFS 211900Z 35005KT 300V030 9999 FEW050 BKN080 06/01 Q1014
RJFS 211800Z 02006KT CAVOK 06/01 Q1015
RJFS 211700Z 06005KT CAVOK 06/00 Q1016
RJFS 211600Z 02005KT CAVOK 06/01 Q1016
RJFS 211200Z 02005KT CAVOK 05/01 Q1019
RJFS 211100Z 03003KT CAVOK 07/00 Q1019
RJFS 211000Z 03005KT CAVOK 08/M00 Q1019
RJFS 210900Z 01007KT CAVOK 09/01 Q1019
RJFS 210800Z 04009KT CAVOK 11/00 Q1019
RJFS 210700Z 04010KT CAVOK 12/01 Q1018
RJFS 210600Z 02009KT 9999 FEW035 BKN/// 12/01 Q1019
RJFS 210500Z VRB04KT 9999 FEW035 SCT045 BKN/// 13/02 Q1019